Flight Track Log - Related Links

Times and Time Zones

All times are in EDT time to prevent confusion due to time zone crossing. See the AWI4053 flight status page for this flight to view local times or setup timezone preferences in your user account.

Time Position Orientation Groundspeed Altitude Reporting Facility
EDT Latitude Longitude Course Direction KTS MPH feet Rate Location/Type
Wed 07:23:04 AM 36.9014 -76.1972 300° West 157 181 800  Level Washington Center
Wed 07:23:34 AM 36.9161 -76.1842 35° Northeast 158 182 2,500 2,609 Climbing Washington Center
Wed 07:24:36 AM 36.9744 -76.1897 356° North 283 326 4,800 2,733 Climbing Washington Center
Wed 07:25:00 AM 36.9828 -76.3823 302° West  Level FlightAware Approximate
Wed 07:25:15 AM 36.9972 -76.2447 297° West 288 331 7,100  Level Washington Center
Wed 07:25:36 AM 37.0094 -76.2811 293° West 290 334 8,200 3,148 Climbing Washington Center
Wed 07:26:00 AM 37.0103 -76.4436 321° Northwest  Level FlightAware Approximate
Wed 07:26:16 AM 37.0319 -76.3411 295° West 294 338 10,300  Level Washington Center
Wed 07:26:37 AM 37.0464 -76.3778 296° West 299 344 11,600 2,897 Climbing Washington Center
Wed 07:27:00 AM 37.0418 -76.5051 300° West  Level FlightAware Approximate
Wed 07:27:14 AM 37.0669 -76.4300 296° West 294 338 13,100  Level Washington Center
Wed 07:27:38 AM 37.0811 -76.4692 294° West 298 343 13,800 984 Climbing Washington Center
Wed 07:28:00 AM 37.0709 -76.5692 300° West  Level FlightAware Approximate
Wed 07:28:15 AM 37.1058 -76.5294 297° West 318 366 14,100  Level Washington Center
Wed 07:29:15 AM 37.1447 -76.6342 295° West 327 376 14,000 -50 Descending Washington Center
Wed 07:30:14 AM 37.1853 -76.7389 296° West 327 376 14,000  Level Washington Center
Wed 07:31:15 AM 37.2261 -76.8439 296° West 327 376 14,000  Level Washington Center
Wed 07:32:15 AM 37.2644 -76.9542 294° West 339 390 14,000  Level Washington Center
Wed 07:33:16 AM 37.3178 -77.0308 311° West 331 381 14,000  Level Washington Center
Wed 07:34:16 AM 37.4156 -77.0483 352° North 303 349 14,000  Level Washington Center
Wed 07:35:14 AM 37.4947 -77.0578 355° North 304 350 14,000  Level Washington Center
Wed 07:36:14 AM 37.5864 -77.0672 355° North 318 366 14,000  Level Washington Center
Wed 07:37:16 AM 37.6781 -77.0794 354° North 324 373 14,000  Level Washington Center
Wed 07:38:16 AM 37.7675 -77.0892 355° North 324 373 14,000  Level Washington Center
Wed 07:39:14 AM 37.8592 -77.1014 354° North 330 380 14,000 -356 Level Washington Center
Wed 07:40:14 AM 37.9467 -77.1111 355° North 330 380 13,300 -843 Descending Washington Center
Wed 07:41:15 AM 38.0319 -77.1233 354° North 318 366 12,300 -934 Descending Washington Center
Wed 07:42:16 AM 38.1111 -77.1331 354° North 306 352 11,400 -942 Descending Washington Center
Wed 07:43:16 AM 38.1925 -77.1425 355° North 294 338 10,400 -712 Descending Washington Center
Wed 07:44:14 AM 38.2736 -77.1522 355° North 294 338 10,000 -814 Descending Washington Center
Wed 07:45:14 AM 38.3531 -77.1325 11° North 282 325 8,800 -1,289 Descending Washington Center
Wed 07:46:15 AM 38.4203 -77.0942 24° Northeast 264 304 7,400 -1,438 Descending Washington Center
Wed 07:47:15 AM 38.4833 -77.0531 27° Northeast 254 292 5,900 -1,488 Descending Washington Center
Wed 07:48:16 AM 38.5461 -77.0358 12° North 243 280 4,400 -1,412 Descending Washington Center
Wed 07:49:14 AM 38.6150 -77.0344 North 237 273 3,100 -950 Descending Washington Center
Wed 07:50:16 AM 38.6833 -77.0333 North 219 252 2,500 -581 Descending Potomac TRACON

Login

Don't have an account? Register now (free) for customized features, flight alerts, and more!